createdAt,value
2018-11-21T00:01:43.804Z,15.13
2018-11-21T00:04:11.921Z,16.00
2018-11-21T00:06:40.048Z,14.30
2018-11-21T00:09:09.091Z,14.07
2018-11-21T00:11:37.214Z,13.40
2018-11-21T00:14:05.655Z,13.30
2018-11-21T00:16:33.801Z,13.67
2018-11-21T00:19:01.937Z,14.50
2018-11-21T00:21:30.071Z,14.90
2018-11-21T00:23:58.195Z,14.40
2018-11-21T00:26:26.306Z,13.60
2018-11-21T00:28:54.434Z,14.63
2018-11-21T00:31:22.561Z,14.27
2018-11-21T00:33:50.683Z,14.60
2018-11-21T00:36:18.794Z,14.47
2018-11-21T00:38:46.919Z,13.77
2018-11-21T00:41:15.028Z,13.50
2018-11-21T00:43:43.155Z,13.30
2018-11-21T00:46:11.465Z,13.30
2018-11-21T00:48:39.606Z,13.60
2018-11-21T00:51:08.040Z,14.50
2018-11-21T00:53:36.173Z,14.17
2018-11-21T00:56:04.397Z,13.80
2018-11-21T00:58:32.541Z,14.20
2018-11-21T01:01:00.655Z,14.03
2018-11-21T01:03:28.785Z,13.60
2018-11-21T01:05:56.923Z,11.40
2018-11-21T01:08:25.066Z,13.60
2018-11-21T01:10:54.210Z,12.10
2018-11-21T01:13:22.342Z,11.03
2018-11-21T01:15:50.481Z,11.50
2018-11-21T01:18:18.625Z,11.43
2018-11-21T01:20:46.748Z,12.97
2018-11-21T01:23:14.942Z,13.00
2018-11-21T01:25:43.051Z,12.13
2018-11-21T01:28:11.186Z,14.40
2018-11-21T01:30:39.293Z,10.67
2018-11-21T01:33:09.658Z,12.20
2018-11-21T01:35:35.539Z,12.50
2018-11-21T01:38:06.491Z,11.30
2018-11-21T01:40:34.615Z,11.10
2018-11-21T01:43:02.724Z,11.83
2018-11-21T01:45:30.856Z,12.13
2018-11-21T01:47:58.975Z,12.90
2018-11-21T01:50:27.111Z,12.43
2018-11-21T01:52:55.221Z,12.77
2018-11-21T01:55:23.353Z,12.20
2018-11-21T01:57:51.478Z,13.73
2018-11-21T02:00:19.599Z,13.60
2018-11-21T02:02:47.717Z,11.53
2018-11-21T02:05:15.856Z,11.93
2018-11-21T02:07:43.978Z,12.53
2018-11-21T02:10:12.107Z,11.73
2018-11-21T02:12:40.208Z,12.80
2018-11-21T02:15:08.332Z,11.80
2018-11-21T02:17:36.447Z,10.90
2018-11-21T02:20:05.727Z,10.30
2018-11-21T02:22:33.866Z,11.30
2018-11-21T02:25:01.992Z,11.33
2018-11-21T02:27:30.108Z,10.70
2018-11-21T02:29:58.233Z,10.90
2018-11-21T02:32:26.360Z,11.57
2018-11-21T02:34:54.481Z,9.70
2018-11-21T02:37:22.590Z,11.10
2018-11-21T02:39:50.713Z,11.27
2018-11-21T02:42:18.819Z,10.17
2018-11-21T02:44:46.931Z,11.37
2018-11-21T02:47:15.060Z,10.27
2018-11-21T02:49:43.172Z,10.90
2018-11-21T02:52:11.311Z,10.90
2018-11-21T02:54:39.426Z,11.23
2018-11-21T02:57:18.236Z,11.13
2018-11-21T02:59:53.598Z,10.00
2018-11-21T03:02:21.726Z,10.87
2018-11-21T03:04:49.839Z,11.40
2018-11-21T03:07:17.957Z,12.70
2018-11-21T03:09:46.078Z,13.00
2018-11-21T03:12:14.194Z,11.10
2018-11-21T03:14:45.062Z,11.17
2018-11-21T03:17:13.189Z,11.33
2018-11-21T03:19:41.348Z,11.97
2018-11-21T03:22:09.453Z,11.77
2018-11-21T03:24:37.563Z,10.60
2018-11-21T03:27:05.799Z,11.80
2018-11-21T03:29:33.920Z,10.77
2018-11-21T03:32:02.118Z,10.40
2018-11-21T03:34:30.201Z,11.90
2018-11-21T03:36:58.335Z,11.77
2018-11-21T03:39:26.792Z,11.90
2018-11-21T03:41:54.940Z,12.47
2018-11-21T03:44:23.061Z,11.83
2018-11-21T03:46:51.185Z,10.83
2018-11-21T03:49:19.307Z,11.27
2018-11-21T03:51:47.417Z,11.43
2018-11-21T03:54:15.530Z,11.63
2018-11-21T03:56:43.649Z,13.07
2018-11-21T03:59:11.778Z,11.63
2018-11-21T04:01:40.248Z,12.30
2018-11-21T04:04:08.966Z,12.87
2018-11-21T04:06:37.091Z,12.10
2018-11-21T04:09:09.806Z,11.47
2018-11-21T04:11:37.908Z,11.70
2018-11-21T04:14:06.094Z,15.00
2018-11-21T04:16:34.198Z,12.10
2018-11-21T04:19:02.323Z,12.10
2018-11-21T04:21:30.430Z,10.60
2018-11-21T04:23:58.555Z,12.13
2018-11-21T04:26:26.668Z,11.40
2018-11-21T04:28:54.790Z,11.43
2018-11-21T04:31:22.909Z,11.10
2018-11-21T04:33:51.040Z,11.30
2018-11-21T04:36:19.161Z,11.70
2018-11-21T04:38:47.285Z,12.87
2018-11-21T04:41:15.406Z,11.47
2018-11-21T04:43:43.525Z,11.20
2018-11-21T04:46:11.659Z,16.50
2018-11-21T04:48:39.787Z,12.50
2018-11-21T04:51:07.899Z,12.00
2018-11-21T04:53:36.031Z,11.63
2018-11-21T04:56:04.245Z,12.60
2018-11-21T04:58:32.379Z,13.63
2018-11-21T05:01:00.507Z,12.97
2018-11-21T05:03:28.624Z,12.67
2018-11-21T05:05:56.742Z,12.90
2018-11-21T05:08:24.858Z,12.20
2018-11-21T05:10:52.996Z,12.77
2018-11-21T05:13:21.115Z,13.07
2018-11-21T05:15:49.243Z,11.93
2018-11-21T05:18:17.350Z,11.70
2018-11-21T05:20:45.483Z,12.23
2018-11-21T05:23:13.597Z,12.40
2018-11-21T05:25:41.726Z,11.13
2018-11-21T05:28:09.898Z,11.80
2018-11-21T05:30:38.022Z,10.43
2018-11-21T05:33:06.132Z,10.43
2018-11-21T05:35:34.261Z,9.73
2018-11-21T05:38:02.424Z,10.20
2018-11-21T05:40:33.578Z,11.43
2018-11-21T05:43:01.690Z,8.93
2018-11-21T05:45:29.905Z,10.57
2018-11-21T05:47:58.027Z,10.10
2018-11-21T05:50:26.169Z,12.47
2018-11-21T05:52:54.273Z,9.73
2018-11-21T05:55:22.412Z,10.20
2018-11-21T05:57:53.845Z,10.97
2018-11-21T06:00:21.976Z,9.63
2018-11-21T06:02:50.091Z,10.50
2018-11-21T06:05:18.235Z,10.17
2018-11-21T06:07:46.359Z,8.83
2018-11-21T06:10:14.926Z,8.87
2018-11-21T06:12:43.596Z,9.53
2018-11-21T06:15:12.308Z,9.50
2018-11-21T06:17:40.634Z,8.90
2018-11-21T06:20:12.742Z,9.50
2018-11-21T06:22:40.927Z,10.70
2018-11-21T06:25:09.811Z,8.60
2018-11-21T06:27:37.955Z,8.23
2018-11-21T06:30:08.788Z,10.07
2018-11-21T06:32:36.888Z,9.00
2018-11-21T06:35:06.734Z,10.30
2018-11-21T06:37:34.899Z,10.30
2018-11-21T06:40:03.052Z,10.67
2018-11-21T06:42:31.232Z,9.70
2018-11-21T06:44:59.322Z,10.60
2018-11-21T06:47:27.479Z,9.57
2018-11-21T06:49:55.590Z,9.27
2018-11-21T06:52:23.726Z,9.90
2018-11-21T06:54:51.846Z,10.50
2018-11-21T06:57:19.991Z,11.13
2018-11-21T06:59:48.113Z,9.80
2018-11-21T07:02:16.287Z,10.33
2018-11-21T07:04:44.425Z,10.80
2018-11-21T07:07:12.549Z,10.23
2018-11-21T07:09:40.656Z,11.00
2018-11-21T07:12:08.800Z,11.10
2018-11-21T07:14:42.929Z,10.90
2018-11-21T07:17:11.050Z,10.43
2018-11-21T07:19:39.186Z,10.67
2018-11-21T07:22:07.338Z,10.13
2018-11-21T07:24:35.449Z,9.47
2018-11-21T07:27:03.627Z,10.13
2018-11-21T07:29:34.641Z,10.10
2018-11-21T07:31:59.885Z,9.90
2018-11-21T07:34:28.014Z,10.07
2018-11-21T07:36:56.177Z,8.90
2018-11-21T07:39:24.296Z,9.67
2018-11-21T07:41:52.765Z,8.80
2018-11-21T07:44:20.569Z,9.37
2018-11-21T07:46:48.663Z,9.47
2018-11-21T07:49:16.774Z,10.50
2018-11-21T07:51:44.894Z,9.37
2018-11-21T07:54:13.004Z,9.23
2018-11-21T07:57:20.563Z,9.67
2018-11-21T08:00:46.277Z,9.60
2018-11-21T08:03:14.880Z,13.33
2018-11-21T08:05:45.386Z,13.53
2018-11-21T08:08:23.602Z,13.23
2018-11-21T08:11:09.499Z,13.00
2018-11-21T08:14:05.948Z,13.10
2018-11-21T08:16:51.954Z,16.60
2018-11-21T08:19:37.813Z,18.60
2018-11-21T08:22:15.393Z,22.00
2018-11-21T08:25:09.617Z,23.30
2018-11-21T08:27:55.618Z,22.83
2018-11-21T08:30:23.747Z,22.20
2018-11-21T08:32:51.916Z,24.77
2018-11-21T08:35:20.020Z,25.83
2018-11-21T08:37:48.109Z,25.23
2018-11-21T08:40:16.270Z,24.13
2018-11-21T08:42:44.386Z,24.20
2018-11-21T08:45:12.517Z,25.80
2018-11-21T08:47:40.635Z,26.67
2018-11-21T08:50:11.017Z,24.17
2018-11-21T08:52:39.127Z,23.93
2018-11-21T08:55:09.021Z,22.40
2018-11-21T08:57:36.419Z,21.53
2018-11-21T09:00:05.228Z,22.10
2018-11-21T09:02:33.322Z,21.57
2018-11-21T09:05:01.440Z,24.20
2018-11-21T09:07:29.551Z,21.70
2018-11-21T09:09:57.667Z,17.50
2018-11-21T09:12:39.514Z,14.43
2018-11-21T09:15:13.442Z,17.03
2018-11-21T09:17:42.007Z,17.20
2018-11-21T09:20:10.609Z,16.13
2018-11-21T09:22:38.916Z,15.43
2018-11-21T09:25:08.423Z,12.93
2018-11-21T09:27:36.944Z,10.20
2018-11-21T09:30:08.589Z,10.07
2018-11-21T09:32:36.699Z,10.67
2018-11-21T09:35:06.443Z,9.00
2018-11-21T09:37:34.535Z,8.70
2018-11-21T09:40:03.119Z,8.73
2018-11-21T09:42:31.256Z,8.30
2018-11-21T09:44:59.367Z,10.07
2018-11-21T09:47:27.462Z,9.40
2018-11-21T09:49:55.564Z,9.20
2018-11-21T09:52:23.654Z,10.60
2018-11-21T09:54:51.760Z,12.90
2018-11-21T09:57:19.857Z,12.90
2018-11-21T09:59:48.012Z,12.20
2018-11-21T10:02:57.134Z,12.47
2018-11-21T10:05:25.347Z,10.23
2018-11-21T10:08:20.917Z,11.97
2018-11-21T10:10:49.079Z,12.00
2018-11-21T10:13:17.188Z,11.33
2018-11-21T10:15:45.306Z,12.43
2018-11-21T10:18:13.432Z,12.80
2018-11-21T10:20:41.588Z,13.77
2018-11-21T10:23:09.747Z,13.97
2018-11-21T10:25:37.861Z,12.47
2018-11-21T10:28:06.026Z,14.07
2018-11-21T10:30:34.123Z,14.70
2018-11-21T10:33:02.258Z,13.47
2018-11-21T10:35:30.407Z,15.67
2018-11-21T10:37:58.527Z,15.70
2018-11-21T10:40:26.680Z,15.63
2018-11-21T10:42:54.815Z,17.53
2018-11-21T10:45:22.924Z,16.63
2018-11-21T10:47:51.062Z,17.30
2018-11-21T10:50:19.159Z,16.77
2018-11-21T10:52:47.263Z,15.23
2018-11-21T10:55:15.640Z,15.90
2018-11-21T10:57:43.742Z,17.60
2018-11-21T11:00:33.959Z,17.40
2018-11-21T11:03:10.368Z,17.83
2018-11-21T11:05:56.575Z,20.90
2018-11-21T11:08:56.802Z,19.33
2018-11-21T11:11:42.884Z,21.10
2018-11-21T11:14:36.263Z,21.60
2018-11-21T11:17:18.774Z,21.60
2018-11-21T11:20:12.728Z,25.90
2018-11-21T11:22:58.784Z,24.63
2018-11-21T11:25:44.609Z,23.77
2018-11-21T11:28:30.391Z,24.93
2018-11-21T11:31:32.986Z,26.77
2018-11-21T11:34:09.559Z,23.70
2018-11-21T11:37:05.903Z,26.47
2018-11-21T11:40:05.313Z,24.30
2018-11-21T11:42:47.078Z,26.23
2018-11-21T11:45:32.889Z,26.33
2018-11-21T11:48:19.902Z,26.87
2018-11-21T11:51:08.238Z,25.90
2018-11-21T11:54:13.854Z,25.97
2018-11-21T11:56:59.855Z,27.77
2018-11-21T11:59:49.557Z,25.83
2018-11-21T12:02:34.720Z,27.60
2018-11-21T12:05:15.194Z,27.23
2018-11-21T12:08:05.342Z,26.73
2018-11-21T12:11:03.234Z,27.70
2018-11-21T12:13:49.071Z,26.60
2018-11-21T12:16:35.945Z,28.80
2018-11-21T12:19:14.165Z,29.27
2018-11-21T12:22:00.020Z,27.07
2018-11-21T12:24:37.845Z,31.00
2018-11-21T12:27:37.000Z,28.43
2018-11-21T12:30:16.599Z,30.67
2018-11-21T12:33:03.912Z,30.27
2018-11-21T12:35:49.889Z,32.90
2018-11-21T12:38:33.919Z,34.70
2018-11-21T12:41:19.745Z,31.73
2018-11-21T12:44:03.871Z,30.10
2018-11-21T12:46:49.808Z,33.40
2018-11-21T12:49:43.143Z,31.57
2018-11-21T12:52:22.270Z,34.13
2018-11-21T12:55:08.072Z,33.60
2018-11-21T12:57:55.591Z,35.77
2018-11-21T13:00:34.182Z,34.67
2018-11-21T13:03:15.281Z,32.27
2018-11-21T13:06:01.315Z,30.97
2018-11-21T13:08:47.217Z,31.17
2018-11-21T13:11:33.247Z,30.37
2018-11-21T13:14:19.296Z,34.23
2018-11-21T13:17:06.618Z,32.03
2018-11-21T13:19:52.884Z,32.63
2018-11-21T13:22:36.802Z,32.13
2018-11-21T13:25:23.815Z,33.60
2018-11-21T13:28:21.486Z,33.70
2018-11-21T13:31:07.268Z,33.20
2018-11-21T13:33:55.935Z,33.83
2018-11-21T13:36:49.233Z,35.80
2018-11-21T13:39:35.083Z,31.30
2018-11-21T13:42:20.897Z,33.00
2018-11-21T13:45:06.641Z,35.50
2018-11-21T13:47:57.867Z,33.80
2018-11-21T13:50:49.886Z,32.97
2018-11-21T13:53:36.130Z,32.03
2018-11-21T13:56:04.217Z,31.63
2018-11-21T13:58:32.317Z,35.37
2018-11-21T14:01:00.452Z,35.33
2018-11-21T14:03:28.514Z,33.73
2018-11-21T14:05:56.593Z,35.63
2018-11-21T14:08:24.701Z,34.37
2018-11-21T14:10:52.782Z,35.17
2018-11-21T14:13:20.887Z,38.43
2018-11-21T14:15:48.980Z,36.37
2018-11-21T14:18:17.084Z,35.60
2018-11-21T14:20:45.177Z,41.00
2018-11-21T14:23:13.286Z,35.13
2018-11-21T14:25:41.412Z,36.83
2018-11-21T14:28:09.486Z,37.90
2018-11-21T14:30:37.593Z,38.23
2018-11-21T14:33:06.035Z,36.50
2018-11-21T14:35:34.167Z,39.97
2018-11-21T14:38:02.341Z,41.23
2018-11-21T14:40:30.430Z,41.20
2018-11-21T14:42:58.525Z,38.17
2018-11-21T14:45:26.620Z,40.30
2018-11-21T14:47:54.791Z,35.30
2018-11-21T14:50:31.159Z,39.10
2018-11-21T14:52:59.239Z,40.30
2018-11-21T14:55:27.361Z,42.70
2018-11-21T14:57:55.460Z,42.00
2018-11-21T15:00:23.715Z,42.43
2018-11-21T15:02:51.868Z,44.35
2018-11-21T15:05:19.931Z,41.75
2018-11-21T15:07:48.264Z,43.83
2018-11-21T15:10:16.371Z,41.93
2018-11-21T15:12:44.462Z,40.12
2018-11-21T15:15:15.050Z,41.70
2018-11-21T15:17:43.218Z,41.70
2018-11-21T15:20:16.602Z,46.53
2018-11-21T15:22:44.729Z,39.78
2018-11-21T15:25:14.380Z,42.30
2018-11-21T15:27:42.632Z,45.50
2018-11-21T15:30:16.773Z,46.42
2018-11-21T15:32:45.172Z,43.87
2018-11-21T15:35:13.277Z,46.00
2018-11-21T15:37:42.129Z,48.40
2018-11-21T15:40:12.703Z,46.03
2018-11-21T15:42:40.849Z,45.93
2018-11-21T15:45:11.244Z,46.75
2018-11-21T15:47:39.448Z,46.47
2018-11-21T15:50:13.011Z,45.83
2018-11-21T15:52:41.294Z,43.15
2018-11-21T15:55:10.081Z,40.70
2018-11-21T15:57:38.376Z,43.85
2018-11-21T16:00:16.972Z,44.20
2018-11-21T16:02:45.976Z,45.90
2018-11-21T16:05:14.672Z,45.60
2018-11-21T16:07:42.808Z,45.07
2018-11-21T16:10:18.539Z,42.93
2018-11-21T16:12:40.740Z,43.60
2018-11-21T16:15:13.999Z,42.17
2018-11-21T16:17:42.175Z,42.23
2018-11-21T16:20:11.784Z,45.23
2018-11-21T16:22:40.014Z,44.30
2018-11-21T16:25:10.091Z,41.92
2018-11-21T16:27:38.577Z,43.97
2018-11-21T16:30:09.758Z,42.17
2018-11-21T16:32:37.859Z,40.20
2018-11-21T16:35:08.389Z,41.33
2018-11-21T16:37:34.252Z,40.43
2018-11-21T16:40:03.114Z,40.20
2018-11-21T16:42:31.232Z,39.47
2018-11-21T16:44:59.334Z,35.17
2018-11-21T16:47:27.454Z,39.53
2018-11-21T16:49:55.560Z,37.55
2018-11-21T16:52:23.721Z,37.78
2018-11-21T16:54:51.830Z,37.10
2018-11-21T16:57:19.952Z,38.80
2018-11-21T16:59:48.046Z,36.53
2018-11-21T17:02:16.144Z,36.30
2018-11-21T17:04:44.294Z,40.00
2018-11-21T17:07:12.356Z,36.07
2018-11-21T17:09:41.520Z,34.18
2018-11-21T17:12:11.117Z,34.73
2018-11-21T17:14:39.232Z,34.30
2018-11-21T17:17:07.392Z,36.07
2018-11-21T17:19:35.513Z,36.53
2018-11-21T17:22:03.620Z,34.58
2018-11-21T17:24:31.742Z,33.50
2018-11-21T17:26:59.845Z,35.97
2018-11-21T17:29:28.110Z,32.73
2018-11-21T17:31:56.217Z,31.17
2018-11-21T17:34:24.343Z,31.10
2018-11-21T17:36:52.445Z,26.83
2018-11-21T17:39:20.570Z,30.03
2018-11-21T17:41:48.666Z,33.40
2018-11-21T17:44:16.790Z,26.63
2018-11-21T17:46:44.903Z,31.25
2018-11-21T17:49:13.021Z,27.30
2018-11-21T17:51:41.128Z,29.63
2018-11-21T17:54:09.242Z,31.45
2018-11-21T17:56:37.346Z,29.25
2018-11-21T17:59:05.511Z,27.17
2018-11-21T18:01:33.783Z,28.50
2018-11-21T18:04:04.487Z,30.50
2018-11-21T18:06:32.592Z,27.97
2018-11-21T18:09:00.681Z,28.90
2018-11-21T18:11:28.792Z,28.50
2018-11-21T18:13:56.894Z,29.32
2018-11-21T18:16:25.013Z,29.70
2018-11-21T18:18:53.112Z,31.87
2018-11-21T18:21:21.230Z,30.00
2018-11-21T18:23:49.328Z,29.43
2018-11-21T18:26:17.443Z,25.30
2018-11-21T18:28:45.547Z,28.77
2018-11-21T18:31:13.655Z,27.37
2018-11-21T18:33:41.755Z,29.10
2018-11-21T18:36:09.906Z,28.33
2018-11-21T18:38:38.003Z,28.15
2018-11-21T18:41:06.111Z,27.90
2018-11-21T18:43:34.215Z,28.30
2018-11-21T18:46:02.349Z,27.55
2018-11-21T18:48:30.455Z,29.43
2018-11-21T18:50:58.581Z,29.60
2018-11-21T18:53:26.726Z,29.30
2018-11-21T18:55:59.896Z,27.90
2018-11-21T18:58:57.856Z,29.30
2018-11-21T19:01:25.983Z,24.60
2018-11-21T19:03:54.106Z,25.70
2018-11-21T19:06:22.219Z,27.40
2018-11-21T19:08:50.331Z,28.25
2018-11-21T19:11:18.444Z,27.27
2018-11-21T19:13:46.550Z,28.00
2018-11-21T19:16:14.662Z,31.00
2018-11-21T19:18:42.787Z,28.73
2018-11-21T19:21:10.919Z,28.40
2018-11-21T19:23:39.022Z,28.97
2018-11-21T19:26:07.144Z,29.87
2018-11-21T19:28:35.242Z,27.90
2018-11-21T19:31:03.371Z,29.00
2018-11-21T19:33:31.462Z,29.87
2018-11-21T19:35:59.560Z,27.70
2018-11-21T19:38:27.669Z,28.77
2018-11-21T19:40:55.766Z,27.27
2018-11-21T19:43:24.165Z,29.60
2018-11-21T19:45:51.994Z,29.20
2018-11-21T19:48:20.104Z,29.00
2018-11-21T19:50:48.310Z,27.77
2018-11-21T19:53:16.415Z,26.40
2018-11-21T19:55:44.510Z,26.63
2018-11-21T19:58:12.621Z,24.03
2018-11-21T20:00:40.743Z,26.07
2018-11-21T20:03:11.527Z,23.77
2018-11-21T20:05:39.629Z,24.37
2018-11-21T20:08:07.735Z,23.70
2018-11-21T20:10:35.841Z,24.67
2018-11-21T20:13:03.951Z,22.03
2018-11-21T20:15:32.224Z,21.73
